createdAt,value
2019-04-22T00:01:55.381Z,81.67
2019-04-22T00:04:32.324Z,81.15
2019-04-22T00:07:08.741Z,89.60
2019-04-22T00:09:45.567Z,73.37
2019-04-22T00:12:20.797Z,76.35
2019-04-22T00:14:42.033Z,77.63
2019-04-22T00:17:26.300Z,83.22
2019-04-22T00:19:53.829Z,67.27
2019-04-22T00:24:47.829Z,71.82
2019-04-22T00:27:21.868Z,65.27
2019-04-22T00:30:08.638Z,64.70
2019-04-22T00:32:31.167Z,58.58
2019-04-22T00:35:02.355Z,55.90
2019-04-22T00:37:36.047Z,52.06
2019-04-22T00:40:07.387Z,49.55
2019-04-22T00:42:34.889Z,45.77
2019-04-22T00:45:08.048Z,41.95
2019-04-22T00:47:41.459Z,41.42
2019-04-22T00:52:34.726Z,37.00
2019-04-22T00:57:35.689Z,34.58
2019-04-22T01:00:11.606Z,34.83
2019-04-22T01:02:41.666Z,34.10
2019-04-22T01:05:15.175Z,35.03
2019-04-22T01:07:40.779Z,32.38
2019-04-22T01:10:11.706Z,31.73
2019-04-22T01:12:39.209Z,31.05
2019-04-22T01:15:20.346Z,29.30
2019-04-22T01:17:43.529Z,32.13
2019-04-22T01:20:23.179Z,30.68
2019-04-22T01:22:36.291Z,31.17
2019-04-22T01:25:08.088Z,33.10
2019-04-22T01:27:30.960Z,35.55
2019-04-22T01:29:55.574Z,33.35
2019-04-22T01:32:24.484Z,36.00
2019-04-22T01:35:03.517Z,33.42
2019-04-22T01:37:34.773Z,38.30
2019-04-22T01:40:21.385Z,35.92
2019-04-22T01:42:50.591Z,36.15
2019-04-22T01:45:19.306Z,34.10
2019-04-22T01:47:43.733Z,39.77
2019-04-22T01:50:15.205Z,33.53
2019-04-22T01:52:47.259Z,35.43
2019-04-22T01:55:25.118Z,33.13
2019-04-22T01:57:42.589Z,35.17
2019-04-22T02:00:09.474Z,36.03
2019-04-22T02:02:50.838Z,40.03
2019-04-22T02:05:19.120Z,45.75
2019-04-22T02:08:04.413Z,43.92
2019-04-22T02:10:22.856Z,43.68
2019-04-22T02:12:48.537Z,43.95
2019-04-22T02:15:16.996Z,42.90
2019-04-22T02:18:10.732Z,41.87
2019-04-22T02:20:21.404Z,39.48
2019-04-22T02:23:40.299Z,34.43
2019-04-22T02:25:57.964Z,30.70
2019-04-22T02:28:33.724Z,33.63
2019-04-22T02:33:51.326Z,27.87
2019-04-22T02:43:49.237Z,29.27
2019-04-22T02:46:22.458Z,29.60
2019-04-22T02:58:52.994Z,29.07
2019-04-22T03:01:13.512Z,28.40
2019-04-22T03:03:50.535Z,28.80
2019-04-22T03:06:16.594Z,29.55
2019-04-22T03:08:39.411Z,28.12
2019-04-22T03:13:47.396Z,26.70
2019-04-22T03:18:53.623Z,29.07
2019-04-22T03:26:27.858Z,31.62
2019-04-22T03:28:47.641Z,35.83
2019-04-22T03:31:54.449Z,31.33
2019-04-22T03:34:38.314Z,31.43
2019-04-22T03:39:15.532Z,33.15
2019-04-22T03:41:41.305Z,33.35
2019-04-22T03:44:15.080Z,29.60
2019-04-22T03:46:39.411Z,30.55
2019-04-22T03:49:11.038Z,26.73
2019-04-22T03:51:43.411Z,26.37
2019-04-22T03:54:11.151Z,27.00
2019-04-22T03:57:05.103Z,26.65
2019-04-22T03:59:09.777Z,25.50
2019-04-22T04:01:36.532Z,25.52
2019-04-22T04:04:09.285Z,26.25
2019-04-22T04:06:43.199Z,24.92
2019-04-22T04:09:00.331Z,25.15
2019-04-22T04:11:38.153Z,23.77
2019-04-22T04:14:01.732Z,26.60
2019-04-22T04:16:30.031Z,27.50
2019-04-22T04:19:07.875Z,26.77
2019-04-22T04:21:33.219Z,25.95
2019-04-22T04:24:11.674Z,26.97
2019-04-22T04:26:48.186Z,26.30
2019-04-22T04:29:19.515Z,26.04
2019-04-22T04:34:03.925Z,25.50
2019-04-22T04:39:02.991Z,22.96
2019-04-22T04:41:43.332Z,24.72
2019-04-22T04:46:44.982Z,22.87
2019-04-22T04:49:14.418Z,21.37
2019-04-22T04:51:43.871Z,22.40
2019-04-22T04:54:13.066Z,22.15
2019-04-22T04:56:36.492Z,22.77
2019-04-22T04:59:13.315Z,21.47
2019-04-22T05:09:15.111Z,20.57
2019-04-22T05:14:05.509Z,20.48
2019-04-22T05:16:46.421Z,19.52
2019-04-22T05:21:32.826Z,18.40
2019-04-22T05:26:32.875Z,19.05
2019-04-22T05:29:05.492Z,19.20
2019-04-22T05:34:04.252Z,17.45
2019-04-22T05:36:37.973Z,17.77
2019-04-22T05:39:01.738Z,16.33
2019-04-22T05:41:36.314Z,16.00
2019-04-22T05:44:02.772Z,16.42
2019-04-22T05:46:34.785Z,16.12
2019-04-22T05:49:07.051Z,16.30
2019-04-22T05:51:37.195Z,16.63
2019-04-22T05:54:13.290Z,17.55
2019-04-22T05:59:07.379Z,16.60
2019-04-22T06:04:09.752Z,16.10
2019-04-22T06:06:29.252Z,16.48
2019-04-22T06:11:34.053Z,16.57
2019-04-22T06:14:07.808Z,16.50
2019-04-22T06:19:13.996Z,15.58
2019-04-22T06:24:18.983Z,15.57
2019-04-22T06:26:53.197Z,14.83
2019-04-22T06:29:15.319Z,15.83
2019-04-22T06:32:10.280Z,15.58
2019-04-22T06:34:17.850Z,14.75
2019-04-22T06:39:26.709Z,14.95
2019-04-22T06:41:47.911Z,12.85
2019-04-22T06:44:21.452Z,14.65
2019-04-22T06:46:47.514Z,14.03
2019-04-22T06:49:20.982Z,14.93
2019-04-22T06:51:45.380Z,14.75
2019-04-22T06:54:21.623Z,14.45
2019-04-22T06:56:50.013Z,15.40
2019-04-22T06:59:18.424Z,13.78
2019-04-22T07:01:52.426Z,14.95
2019-04-22T07:04:17.253Z,13.60
2019-04-22T07:11:49.912Z,13.88
2019-04-22T07:14:18.911Z,13.40
2019-04-22T07:16:54.532Z,13.68
2019-04-22T07:19:21.874Z,12.43
2019-04-22T07:21:50.930Z,11.82
2019-04-22T07:24:35.611Z,12.80
2019-04-22T07:26:54.543Z,13.53
2019-04-22T07:29:19.067Z,10.90
2019-04-22T07:31:56.232Z,13.10
2019-04-22T07:34:26.475Z,11.85
2019-04-22T07:39:27.528Z,11.40
2019-04-22T07:41:51.500Z,10.80
2019-04-22T07:44:25.093Z,11.17
2019-04-22T07:46:59.416Z,12.75
2019-04-22T07:49:26.868Z,11.10
2019-04-22T07:51:53.846Z,10.98
2019-04-22T07:54:24.437Z,10.72
2019-04-22T07:57:07.285Z,10.72
2019-04-22T07:59:22.241Z,11.05
2019-04-22T08:01:53.663Z,10.30
2019-04-22T08:04:35.813Z,11.15
2019-04-22T08:06:57.345Z,10.40
2019-04-22T08:09:27.681Z,10.58
2019-04-22T08:12:02.611Z,10.20
2019-04-22T08:14:32.829Z,10.06
2019-04-22T08:17:01.470Z,9.95
2019-04-22T08:21:57.021Z,9.60
2019-04-22T08:24:29.320Z,10.05
2019-04-22T08:26:53.102Z,8.55
2019-04-22T08:29:31.242Z,10.35
2019-04-22T08:31:55.256Z,9.50
2019-04-22T08:34:24.848Z,8.43
2019-04-22T08:37:25.585Z,8.68
2019-04-22T08:39:26.784Z,7.75
2019-04-22T08:41:51.340Z,9.00
2019-04-22T08:44:55.308Z,8.95
2019-04-22T08:47:10.993Z,8.73
2019-04-22T08:49:47.785Z,7.95
2019-04-22T08:52:03.862Z,8.15
2019-04-22T08:54:36.107Z,8.88
2019-04-22T08:57:11.021Z,7.70
2019-04-22T08:59:33.726Z,7.83
2019-04-22T09:02:06.331Z,6.85
2019-04-22T09:04:39.084Z,7.30
2019-04-22T09:07:21.166Z,7.30
2019-04-22T09:09:37.891Z,6.50
2019-04-22T09:12:08.428Z,6.03
2019-04-22T09:14:42.168Z,6.80
2019-04-22T09:17:14.767Z,6.47
2019-04-22T09:19:40.515Z,6.50
2019-04-22T09:22:15.978Z,6.40
2019-04-22T09:24:43.094Z,6.20
2019-04-22T09:27:19.160Z,6.78
2019-04-22T09:34:47.069Z,5.28
2019-04-22T09:37:28.094Z,5.22
2019-04-22T09:42:18.882Z,5.70
2019-04-22T09:44:53.347Z,5.77
2019-04-22T09:47:19.167Z,5.60
2019-04-22T09:49:56.160Z,5.37
2019-04-22T09:52:22.432Z,5.62
2019-04-22T09:55:00.257Z,5.34
2019-04-22T09:57:23.329Z,5.33
2019-04-22T09:59:57.492Z,5.50
2019-04-22T10:05:02.110Z,5.47
2019-04-22T10:07:27.064Z,5.40
2019-04-22T10:10:03.314Z,5.67
2019-04-22T10:12:32.447Z,5.25
2019-04-22T10:14:58.162Z,5.55
2019-04-22T10:17:31.995Z,6.10
2019-04-22T10:20:02.475Z,5.22
2019-04-22T10:22:32.317Z,5.40
2019-04-22T10:25:08.267Z,5.92
2019-04-22T10:27:32.731Z,5.45
2019-04-22T10:30:13.016Z,4.95
2019-04-22T10:32:39.596Z,5.10
2019-04-22T10:35:09.223Z,4.75
2019-04-22T10:37:34.345Z,6.40
2019-04-22T10:40:06.504Z,5.65
2019-04-22T10:42:41.011Z,5.05
2019-04-22T10:45:12.382Z,5.50
2019-04-22T10:47:42.252Z,5.95
2019-04-22T10:50:12.574Z,5.20
2019-04-22T10:52:41.458Z,5.55
2019-04-22T10:55:09.979Z,5.70
2019-04-22T10:57:39.006Z,5.42
2019-04-22T11:00:09.258Z,5.05
2019-04-22T11:02:39.681Z,4.85
2019-04-22T11:05:08.214Z,6.58
2019-04-22T11:07:44.033Z,6.65
2019-04-22T11:10:21.767Z,4.70
2019-04-22T11:12:39.374Z,6.15
2019-04-22T11:15:16.125Z,5.03
2019-04-22T11:17:44.491Z,5.47
2019-04-22T11:20:13.502Z,6.00
2019-04-22T11:22:42.694Z,11.40
2019-04-22T11:25:11.893Z,10.00
2019-04-22T11:27:41.111Z,5.60
2019-04-22T11:30:11.048Z,5.22
2019-04-22T11:32:40.425Z,5.28
2019-04-22T11:35:11.907Z,5.10
2019-04-22T11:37:42.750Z,5.47
2019-04-22T11:40:19.246Z,5.97
2019-04-22T11:42:42.249Z,16.45
2019-04-22T11:45:13.213Z,5.80
2019-04-22T11:47:43.352Z,17.82
2019-04-22T11:50:15.599Z,7.72
2019-04-22T11:52:44.769Z,4.92
2019-04-22T11:55:13.233Z,7.07
2019-04-22T11:57:43.044Z,5.17
2019-04-22T12:00:14.554Z,4.58
2019-04-22T12:02:43.064Z,4.50
2019-04-22T12:05:11.969Z,4.30
2019-04-22T12:07:42.395Z,4.50
2019-04-22T12:10:22.871Z,5.60
2019-04-22T12:12:44.830Z,5.03
2019-04-22T12:15:12.794Z,4.00
2019-04-22T12:17:42.622Z,4.47
2019-04-22T12:20:14.064Z,4.25
2019-04-22T12:22:41.246Z,4.72
2019-04-22T12:25:10.672Z,4.55
2019-04-22T12:27:39.176Z,4.37
2019-04-22T12:30:11.146Z,4.78
2019-04-22T12:32:39.602Z,4.65
2019-04-22T12:35:09.270Z,4.05
2019-04-22T12:37:46.771Z,3.85
2019-04-22T12:40:08.733Z,3.40
2019-04-22T12:42:37.552Z,3.80
2019-04-22T12:45:08.287Z,4.33
2019-04-22T12:47:40.135Z,3.72
2019-04-22T12:50:20.506Z,4.17
2019-04-22T12:52:51.426Z,4.10
2019-04-22T12:55:14.280Z,4.22
2019-04-22T12:57:42.956Z,3.80
2019-04-22T13:00:13.462Z,3.33
2019-04-22T13:02:43.109Z,3.50
2019-04-22T13:05:12.551Z,3.47
2019-04-22T13:07:42.217Z,4.20
2019-04-22T13:10:11.122Z,3.67
2019-04-22T13:12:39.400Z,3.73
2019-04-22T13:15:14.106Z,3.30
2019-04-22T13:17:44.223Z,3.97
2019-04-22T13:20:16.088Z,3.92
2019-04-22T13:22:44.936Z,3.80
2019-04-22T13:25:15.617Z,4.67
2019-04-22T13:27:45.056Z,4.40
2019-04-22T13:30:16.390Z,4.35
2019-04-22T13:32:46.971Z,4.00
2019-04-22T13:35:19.530Z,4.08
2019-04-22T13:37:46.819Z,4.17
2019-04-22T13:40:16.917Z,4.03
2019-04-22T13:42:45.302Z,4.30
2019-04-22T13:45:13.990Z,4.35
2019-04-22T13:48:02.871Z,3.90
2019-04-22T13:50:56.493Z,4.35
2019-04-22T13:53:33.792Z,4.05
2019-04-22T13:58:01.038Z,4.37
2019-04-22T14:00:20.398Z,4.30
2019-04-22T14:03:06.898Z,4.33
2019-04-22T14:05:37.111Z,3.80
2019-04-22T14:08:06.735Z,4.85
2019-04-22T14:10:38.471Z,3.83
2019-04-22T14:13:08.004Z,4.87
2019-04-22T14:15:37.977Z,4.25
2019-04-22T14:18:07.405Z,4.40
2019-04-22T14:20:36.780Z,3.90
2019-04-22T14:23:07.826Z,4.17
2019-04-22T14:25:36.817Z,3.70
2019-04-22T14:28:10.240Z,3.83
2019-04-22T14:30:36.939Z,3.50
2019-04-22T14:33:07.490Z,3.90
2019-04-22T14:35:37.976Z,3.98
2019-04-22T14:38:08.310Z,3.62
2019-04-22T14:40:38.520Z,3.58
2019-04-22T14:43:31.352Z,3.67
2019-04-22T14:46:08.163Z,3.62
2019-04-22T14:48:38.787Z,3.95
2019-04-22T14:50:57.717Z,3.70
2019-04-22T14:53:29.376Z,3.70
2019-04-22T14:55:38.394Z,3.77
2019-04-22T14:58:07.199Z,3.55
2019-04-22T15:00:35.872Z,3.30
2019-04-22T15:03:05.758Z,3.58
2019-04-22T15:05:34.530Z,3.30
2019-04-22T15:08:03.375Z,3.40
2019-04-22T15:10:31.909Z,2.90
2019-04-22T15:13:00.784Z,3.30
2019-04-22T15:15:40.541Z,3.95
2019-04-22T15:21:01.014Z,3.30
2019-04-22T15:23:30.877Z,3.23
2019-04-22T15:25:59.626Z,3.22
2019-04-22T15:28:29.251Z,3.72
2019-04-22T15:30:57.735Z,3.08
2019-04-22T15:33:27.637Z,2.87
2019-04-22T15:35:56.137Z,3.27
2019-04-22T15:38:26.162Z,3.52
2019-04-22T15:40:56.648Z,3.30
2019-04-22T15:43:27.966Z,3.27
2019-04-22T15:45:55.080Z,3.13
2019-04-22T15:48:24.950Z,3.50
2019-04-22T15:50:54.886Z,3.83
2019-04-22T15:53:23.561Z,3.47
2019-04-22T15:55:52.467Z,3.10
2019-04-22T15:58:21.773Z,3.40
2019-04-22T16:00:59.969Z,3.65
2019-04-22T16:03:20.620Z,3.15
2019-04-22T16:05:50.133Z,3.10
2019-04-22T16:08:19.548Z,3.65
2019-04-22T16:10:48.238Z,3.20
2019-04-22T16:13:22.351Z,3.40
2019-04-22T16:15:48.799Z,3.67
2019-04-22T16:18:18.255Z,3.17
2019-04-22T16:20:48.096Z,3.75
2019-04-22T16:23:29.609Z,3.92
2019-04-22T16:25:59.306Z,3.87
2019-04-22T16:28:29.138Z,3.60
2019-04-22T16:30:57.751Z,3.52
2019-04-22T16:33:27.752Z,3.75
2019-04-22T16:35:56.120Z,3.60
2019-04-22T16:38:24.777Z,3.17
2019-04-22T16:40:54.615Z,3.70
2019-04-22T16:43:24.682Z,3.10
2019-04-22T16:45:53.769Z,3.45
2019-04-22T16:48:22.541Z,3.50
2019-04-22T16:50:52.630Z,3.12
2019-04-22T16:53:21.007Z,3.47
2019-04-22T16:55:50.845Z,3.27
2019-04-22T16:58:20.721Z,3.10
2019-04-22T17:00:49.631Z,3.58
2019-04-22T17:03:36.612Z,3.25
2019-04-22T17:06:21.723Z,3.17
2019-04-22T17:08:50.892Z,3.20
2019-04-22T17:11:20.197Z,3.10
2019-04-22T17:13:50.092Z,3.12
2019-04-22T17:16:20.076Z,3.17
2019-04-22T17:18:49.951Z,3.00
2019-04-22T17:21:19.640Z,3.17
2019-04-22T17:23:49.846Z,2.90
2019-04-22T17:26:18.868Z,3.27
2019-04-22T17:28:47.317Z,2.80
2019-04-22T17:31:16.475Z,3.67
2019-04-22T17:33:46.592Z,3.33
2019-04-22T17:36:16.373Z,3.50
2019-04-22T17:38:53.152Z,3.27
2019-04-22T17:41:24.757Z,3.25
2019-04-22T17:44:12.225Z,3.52
2019-04-22T17:46:32.216Z,3.15
2019-04-22T17:49:21.910Z,3.00
2019-04-22T17:52:11.091Z,3.70
2019-04-22T17:54:46.866Z,3.30
2019-04-22T17:57:09.805Z,3.60
2019-04-22T17:59:38.105Z,3.37
2019-04-22T18:02:06.474Z,3.30
2019-04-22T18:04:20.071Z,3.40
2019-04-22T18:07:15.600Z,4.12
2019-04-22T18:10:14.088Z,3.67
2019-04-22T18:12:11.811Z,3.40
2019-04-22T18:14:48.456Z,3.45
2019-04-22T18:17:11.525Z,3.25
2019-04-22T18:19:35.159Z,3.90
2019-04-22T18:22:02.455Z,3.70
2019-04-22T18:24:28.093Z,4.33
2019-04-22T18:27:19.775Z,3.47
2019-04-22T18:29:38.216Z,3.62
2019-04-22T18:32:02.800Z,3.80
2019-04-22T18:34:35.165Z,3.67
2019-04-22T18:37:09.286Z,5.12
2019-04-22T18:39:50.894Z,4.22
2019-04-22T18:42:09.463Z,4.85
2019-04-22T18:44:45.549Z,4.72
2019-04-22T18:47:11.693Z,4.45
2019-04-22T18:49:42.891Z,4.05
2019-04-22T18:52:27.172Z,3.83
2019-04-22T18:55:04.177Z,4.12
2019-04-22T18:57:41.649Z,3.60
2019-04-22T19:00:04.295Z,4.08
2019-04-22T19:02:35.028Z,4.00
2019-04-22T19:05:12.234Z,3.85
2019-04-22T19:07:59.066Z,3.15
2019-04-22T19:10:37.457Z,3.50
2019-04-22T19:13:17.486Z,3.40
2019-04-22T19:15:33.602Z,3.77
2019-04-22T19:18:03.709Z,4.17
2019-04-22T19:20:34.374Z,3.25
2019-04-22T19:23:04.225Z,3.67
2019-04-22T19:25:25.499Z,3.95
2019-04-22T19:28:01.118Z,3.85
2019-04-22T19:30:38.257Z,3.90
2019-04-22T19:33:07.596Z,6.33
2019-04-22T19:35:28.371Z,3.47
2019-04-22T19:37:57.318Z,4.10
2019-04-22T19:40:50.523Z,3.75
2019-04-22T19:43:09.024Z,3.96
2019-04-22T19:45:37.080Z,4.30
2019-04-22T19:48:16.684Z,3.62
2019-04-22T19:50:50.419Z,3.98
2019-04-22T19:53:21.132Z,3.80
2019-04-22T19:55:41.195Z,3.65
2019-04-22T19:58:15.130Z,3.52
2019-04-22T20:00:52.022Z,3.83
2019-04-22T20:03:48.241Z,4.47
2019-04-22T20:06:27.067Z,3.35
2019-04-22T20:08:59.240Z,3.80
2019-04-22T20:11:28.418Z,3.00
2019-04-22T20:14:02.542Z,3.27
2019-04-22T20:16:25.164Z,3.20
2019-04-22T20:18:56.573Z,3.70
2019-04-22T20:21:28.349Z,2.87
2019-04-22T20:23:48.932Z,3.40
2019-04-22T20:26:26.546Z,3.00
2019-04-22T20:28:58.901Z,2.90
2019-04-22T20:31:28.970Z,3.00
2019-04-22T20:34:03.509Z,3.22
2019-04-22T20:38:58.117Z,3.00
2019-04-22T20:41:24.867Z,2.90
2019-04-22T20:44:04.974Z,3.53
2019-04-22T20:46:29.597Z,3.00
2019-04-22T20:49:00.617Z,3.40
2019-04-22T20:51:36.226Z,3.25
2019-04-22T20:54:02.749Z,3.27
2019-04-22T20:56:29.978Z,3.50
2019-04-22T20:59:05.035Z,3.47
2019-04-22T21:01:34.171Z,5.10
2019-04-22T21:03:47.642Z,3.40
2019-04-22T21:06:33.401Z,4.08
2019-04-22T21:09:00.711Z,3.52
2019-04-22T21:11:30.293Z,3.60
2019-04-22T21:14:01.739Z,3.80
2019-04-22T21:16:34.607Z,3.85
2019-04-22T21:19:02.791Z,3.72
2019-04-22T21:21:31.787Z,4.03
2019-04-22T21:23:57.240Z,4.00
2019-04-22T21:26:28.776Z,3.30
2019-04-22T21:28:59.493Z,3.80
2019-04-22T21:31:35.010Z,3.90
2019-04-22T21:34:04.153Z,4.20
2019-04-22T21:36:35.596Z,4.10
2019-04-22T21:39:03.712Z,4.35
2019-04-22T21:41:34.136Z,3.70
2019-04-22T21:44:07.567Z,4.22
2019-04-22T21:46:33.544Z,4.20
2019-04-22T21:49:16.733Z,4.10
2019-04-22T21:51:48.067Z,4.05
2019-04-22T21:54:10.224Z,4.28
2019-04-22T21:56:56.638Z,4.33
2019-04-22T21:59:12.443Z,4.75
2019-04-22T22:04:17.611Z,4.40
2019-04-22T22:06:37.922Z,4.25
2019-04-22T22:09:20.383Z,4.15
2019-04-22T22:11:49.391Z,4.70
2019-04-22T22:14:16.726Z,4.90
2019-04-22T22:16:43.492Z,4.47
2019-04-22T22:19:23.980Z,4.90
2019-04-22T22:22:03.638Z,4.65
2019-04-22T22:24:22.684Z,4.50
2019-04-22T22:26:56.030Z,5.00
2019-04-22T22:31:56.103Z,4.42
2019-04-22T22:34:24.541Z,4.67
2019-04-22T22:36:46.475Z,4.70
2019-04-22T22:39:18.811Z,4.15
2019-04-22T22:41:32.111Z,5.13
2019-04-22T22:44:08.804Z,4.08
2019-04-22T22:46:40.358Z,4.58
2019-04-22T22:49:23.660Z,4.53
2019-04-22T22:51:57.077Z,4.40
2019-04-22T22:54:24.010Z,4.30
2019-04-22T22:59:23.526Z,4.67
2019-04-22T23:01:52.751Z,5.17
2019-04-22T23:04:31.185Z,5.30
2019-04-22T23:06:56.178Z,4.90
2019-04-22T23:09:19.534Z,4.42
2019-04-22T23:12:06.463Z,4.70
2019-04-22T23:14:28.330Z,4.55
2019-04-22T23:16:43.013Z,4.62
2019-04-22T23:19:04.357Z,4.80
2019-04-22T23:21:39.097Z,5.65
2019-04-22T23:24:21.302Z,5.27
2019-04-22T23:26:54.252Z,5.20
2019-04-22T23:29:24.925Z,5.85
2019-04-22T23:31:59.670Z,4.55
2019-04-22T23:34:32.705Z,6.15
2019-04-22T23:37:04.370Z,5.12
2019-04-22T23:39:43.611Z,5.03
2019-04-22T23:42:17.976Z,5.05
2019-04-22T23:44:55.288Z,6.53
2019-04-22T23:47:18.490Z,6.70
2019-04-22T23:49:57.887Z,6.25
2019-04-22T23:52:30.633Z,6.65
2019-04-22T23:55:02.062Z,7.08
2019-04-22T23:57:33.256Z,7.10
